createdAt,value
2022-12-15T00:02:35.486Z,22.50
2022-12-15T00:05:22.023Z,25.07
2022-12-15T00:08:07.824Z,24.23
2022-12-15T00:10:53.385Z,20.43
2022-12-15T00:13:38.845Z,23.10
2022-12-15T00:16:25.966Z,24.50
2022-12-15T00:19:11.654Z,22.40
2022-12-15T00:21:57.377Z,22.50
2022-12-15T00:24:43.350Z,21.10
2022-12-15T00:27:28.858Z,21.93
2022-12-15T00:30:14.467Z,21.83
2022-12-15T00:33:00.166Z,22.20
2022-12-15T00:35:45.776Z,20.57
2022-12-15T00:38:33.489Z,22.17
2022-12-15T00:41:02.095Z,21.07
2022-12-15T00:43:35.063Z,22.63
2022-12-15T00:46:21.891Z,22.93
2022-12-15T00:48:48.972Z,20.70
2022-12-15T00:51:17.609Z,19.77
2022-12-15T00:54:04.918Z,22.00
2022-12-15T00:56:50.701Z,21.37
2022-12-15T00:59:36.557Z,23.33
2022-12-15T01:02:22.771Z,22.90
2022-12-15T01:05:08.563Z,21.60
2022-12-15T01:07:54.396Z,21.13
2022-12-15T01:10:39.967Z,21.77
2022-12-15T01:13:25.803Z,21.80
2022-12-15T01:16:11.369Z,22.37
2022-12-15T01:18:57.310Z,21.23
2022-12-15T01:21:25.492Z,20.90
2022-12-15T01:23:53.430Z,22.73
2022-12-15T01:26:20.727Z,22.40
2022-12-15T01:28:47.853Z,22.07
2022-12-15T01:31:15.322Z,20.53
2022-12-15T01:33:43.749Z,20.53
2022-12-15T01:36:11.667Z,21.27
2022-12-15T01:38:38.701Z,21.07
2022-12-15T01:41:09.955Z,20.63
2022-12-15T01:43:39.683Z,19.20
2022-12-15T01:46:12.654Z,21.07
2022-12-15T01:49:02.558Z,20.60
2022-12-15T01:51:39.546Z,20.13
2022-12-15T01:54:15.065Z,19.80
2022-12-15T01:56:47.775Z,20.27
2022-12-15T01:59:20.919Z,20.40
2022-12-15T02:01:49.869Z,21.10
2022-12-15T02:04:21.412Z,20.43
2022-12-15T02:06:48.567Z,20.50
2022-12-15T02:09:17.134Z,19.77
2022-12-15T02:12:13.337Z,20.00
2022-12-15T02:15:23.570Z,19.53
2022-12-15T02:18:02.704Z,20.03
2022-12-15T02:20:53.322Z,20.87
2022-12-15T02:23:50.491Z,19.23
2022-12-15T02:26:41.330Z,20.00
2022-12-15T02:29:29.162Z,19.67
2022-12-15T02:32:13.595Z,21.70
2022-12-15T02:34:48.360Z,19.97
2022-12-15T02:37:32.066Z,20.67
2022-12-15T02:39:59.356Z,21.40
2022-12-15T02:42:29.067Z,20.77
2022-12-15T02:45:09.316Z,20.67
2022-12-15T02:47:48.635Z,20.67
2022-12-15T02:50:29.771Z,20.10
2022-12-15T02:53:34.897Z,21.63
2022-12-15T02:56:31.695Z,19.30
2022-12-15T02:59:34.039Z,20.13
2022-12-15T03:02:06.939Z,20.67
2022-12-15T03:04:34.181Z,20.80
2022-12-15T03:07:09.511Z,21.83
2022-12-15T03:09:36.462Z,20.80
2022-12-15T03:12:03.739Z,18.97
2022-12-15T03:14:30.695Z,19.97
2022-12-15T03:16:57.731Z,20.20
2022-12-15T03:19:25.905Z,20.73
2022-12-15T03:21:53.149Z,22.03
2022-12-15T03:24:20.199Z,21.13
2022-12-15T03:26:50.107Z,18.93
2022-12-15T03:29:18.102Z,20.60
2022-12-15T03:31:45.574Z,21.23
2022-12-15T03:34:13.661Z,20.13
2022-12-15T03:36:40.983Z,19.77
2022-12-15T03:39:08.020Z,20.63
2022-12-15T03:41:35.159Z,19.90
2022-12-15T03:44:02.172Z,20.87
2022-12-15T03:46:29.205Z,19.67
2022-12-15T03:48:56.326Z,21.23
2022-12-15T03:51:23.371Z,20.67
2022-12-15T03:53:50.727Z,21.30
2022-12-15T03:56:18.427Z,20.67
2022-12-15T03:58:45.414Z,21.00
2022-12-15T04:01:23.134Z,20.17
2022-12-15T04:03:50.404Z,21.63
2022-12-15T04:06:18.685Z,21.10
2022-12-15T04:08:45.692Z,21.87
2022-12-15T04:11:17.832Z,21.50
2022-12-15T04:13:45.224Z,22.10
2022-12-15T04:16:17.829Z,21.03
2022-12-15T04:18:46.668Z,22.30
2022-12-15T04:21:13.613Z,21.93
2022-12-15T04:23:59.153Z,21.17
2022-12-15T04:26:44.670Z,21.17
2022-12-15T04:29:30.587Z,23.30
2022-12-15T04:32:15.946Z,21.47
2022-12-15T04:35:01.950Z,21.30
2022-12-15T04:37:47.734Z,21.17
2022-12-15T04:40:33.338Z,20.17
2022-12-15T04:43:18.933Z,21.43
2022-12-15T04:46:04.767Z,20.90
2022-12-15T04:48:50.314Z,20.80
2022-12-15T04:51:35.972Z,22.10
2022-12-15T04:54:21.497Z,21.63
2022-12-15T04:57:07.405Z,21.23
2022-12-15T04:59:53.221Z,21.77
2022-12-15T05:02:38.800Z,21.27
2022-12-15T05:05:24.918Z,21.83
2022-12-15T05:08:10.675Z,22.37
2022-12-15T05:10:56.482Z,22.63
2022-12-15T05:13:42.255Z,22.63
2022-12-15T05:16:27.831Z,22.97
2022-12-15T05:19:13.721Z,22.27
2022-12-15T05:21:59.073Z,23.03
2022-12-15T05:24:44.862Z,22.97
2022-12-15T05:27:30.729Z,22.47
2022-12-15T05:30:16.511Z,22.67
2022-12-15T05:32:43.493Z,21.90
2022-12-15T05:35:10.659Z,22.50
2022-12-15T05:37:37.701Z,22.83
2022-12-15T05:40:05.265Z,24.50
2022-12-15T05:42:32.194Z,24.70
2022-12-15T05:44:59.166Z,26.30
2022-12-15T05:47:26.422Z,25.03
2022-12-15T05:49:53.482Z,25.80
2022-12-15T05:52:20.452Z,24.40
2022-12-15T05:54:47.392Z,26.80
2022-12-15T05:57:14.455Z,25.20
2022-12-15T05:59:41.381Z,25.63
2022-12-15T06:02:08.372Z,25.77
2022-12-15T06:04:35.391Z,26.07
2022-12-15T06:07:02.387Z,26.03
2022-12-15T06:09:29.406Z,25.37
2022-12-15T06:11:56.343Z,26.40
2022-12-15T06:14:23.496Z,26.40
2022-12-15T06:16:51.699Z,23.17
2022-12-15T06:19:20.321Z,24.90
2022-12-15T06:21:47.531Z,25.07
2022-12-15T06:24:14.561Z,24.63
2022-12-15T06:26:41.584Z,25.43
2022-12-15T06:29:12.019Z,26.37
2022-12-15T06:31:41.098Z,24.03
2022-12-15T06:34:12.386Z,24.03
2022-12-15T06:36:40.200Z,26.33
2022-12-15T06:39:10.903Z,24.93
2022-12-15T06:41:38.747Z,25.90
2022-12-15T06:44:05.903Z,25.10
2022-12-15T06:46:35.068Z,26.07
2022-12-15T06:49:02.566Z,25.00
2022-12-15T06:51:30.305Z,25.23
2022-12-15T06:53:57.286Z,26.07
2022-12-15T06:56:33.013Z,25.57
2022-12-15T06:59:02.020Z,25.80
2022-12-15T07:01:29.818Z,25.77
2022-12-15T07:04:00.149Z,25.53
2022-12-15T07:06:28.305Z,26.17
2022-12-15T07:08:56.829Z,25.33
2022-12-15T07:11:24.106Z,27.00
2022-12-15T07:13:54.634Z,25.60
2022-12-15T07:16:23.197Z,26.67
2022-12-15T07:18:50.544Z,27.77
2022-12-15T07:21:18.182Z,26.93
2022-12-15T07:23:54.657Z,25.40
2022-12-15T07:26:23.679Z,27.90
2022-12-15T07:28:50.718Z,26.60
2022-12-15T07:31:17.964Z,27.73
2022-12-15T07:33:45.518Z,26.97
2022-12-15T07:36:13.225Z,26.87
2022-12-15T07:38:40.268Z,26.43
2022-12-15T07:41:09.864Z,28.37
2022-12-15T07:43:38.121Z,27.63
2022-12-15T07:46:06.369Z,28.77
2022-12-15T07:48:33.810Z,26.20
2022-12-15T07:51:12.431Z,25.80
2022-12-15T07:53:44.555Z,26.10
2022-12-15T07:56:11.575Z,24.83
2022-12-15T07:58:39.015Z,25.43
2022-12-15T08:01:10.592Z,25.20
2022-12-15T08:03:39.162Z,25.17
2022-12-15T08:06:12.145Z,24.97
2022-12-15T08:08:40.499Z,23.63
2022-12-15T08:11:10.868Z,24.50
2022-12-15T08:16:27.520Z,25.57
2022-12-15T08:18:57.114Z,23.60
2022-12-15T08:21:24.141Z,23.23
2022-12-15T08:23:51.166Z,24.23
2022-12-15T08:26:18.994Z,22.97
2022-12-15T08:28:46.274Z,24.80
2022-12-15T08:31:22.825Z,26.00
2022-12-15T08:33:50.631Z,24.77
2022-12-15T08:36:19.445Z,25.57
2022-12-15T08:38:47.669Z,24.70
2022-12-15T08:41:20.982Z,23.20
2022-12-15T08:43:49.762Z,24.80
2022-12-15T08:46:19.217Z,26.47
2022-12-15T08:48:47.004Z,24.00
2022-12-15T08:51:14.397Z,25.43
2022-12-15T08:53:41.653Z,24.40
2022-12-15T08:56:13.103Z,24.97
2022-12-15T08:58:40.683Z,25.97
2022-12-15T09:01:16.075Z,27.13
2022-12-15T09:03:46.450Z,24.80
2022-12-15T09:06:27.754Z,26.77
2022-12-15T09:08:57.706Z,23.90
2022-12-15T09:11:26.125Z,27.63
2022-12-15T09:13:53.209Z,28.27
2022-12-15T09:16:21.582Z,27.00
2022-12-15T09:18:55.496Z,28.30
2022-12-15T09:21:26.307Z,28.87
2022-12-15T09:23:57.776Z,27.00
2022-12-15T09:26:24.976Z,28.50
2022-12-15T09:28:54.940Z,28.17
2022-12-15T09:31:32.766Z,28.17
2022-12-15T09:34:00.901Z,26.83
2022-12-15T09:36:30.038Z,27.43
2022-12-15T09:38:56.985Z,28.90
2022-12-15T09:41:33.155Z,25.87
2022-12-15T09:44:28.998Z,26.63
2022-12-15T09:47:01.285Z,24.87
2022-12-15T09:50:01.596Z,25.10
2022-12-15T09:52:35.846Z,24.20
2022-12-15T09:55:16.762Z,23.97
2022-12-15T09:57:52.999Z,24.07
2022-12-15T10:00:36.544Z,22.73
2022-12-15T10:03:32.071Z,23.17
2022-12-15T10:06:20.067Z,22.50
2022-12-15T10:08:57.464Z,22.07
2022-12-15T10:11:40.930Z,21.70
2022-12-15T10:14:23.136Z,21.10
2022-12-15T10:17:17.169Z,22.53
2022-12-15T10:20:07.261Z,22.67
2022-12-15T10:22:38.269Z,22.93
2022-12-15T10:25:14.123Z,24.00
2022-12-15T10:27:56.085Z,25.33
2022-12-15T10:30:23.389Z,24.47
2022-12-15T10:33:11.472Z,25.90
2022-12-15T10:35:40.441Z,24.63
2022-12-15T10:38:24.636Z,28.57
2022-12-15T10:40:56.601Z,26.70
2022-12-15T10:43:25.389Z,30.20
2022-12-15T10:46:24.622Z,29.60
2022-12-15T10:48:57.133Z,27.60
2022-12-15T10:51:42.812Z,28.87
2022-12-15T10:54:09.944Z,29.63
2022-12-15T10:56:57.337Z,27.70
2022-12-15T10:59:34.215Z,27.93
2022-12-15T11:02:36.926Z,29.57
2022-12-15T11:05:22.857Z,27.50
2022-12-15T11:08:17.168Z,27.27
2022-12-15T11:11:18.374Z,25.73
2022-12-15T11:14:11.339Z,25.67
2022-12-15T11:16:54.170Z,27.00
2022-12-15T11:19:40.669Z,25.37
2022-12-15T11:22:18.694Z,27.20
2022-12-15T11:24:53.362Z,26.13
2022-12-15T11:27:36.006Z,26.27
2022-12-15T11:30:20.139Z,27.27
2022-12-15T11:32:58.094Z,25.83
2022-12-15T11:35:53.295Z,27.60
2022-12-15T11:38:56.791Z,28.07
2022-12-15T11:41:53.491Z,26.47
2022-12-15T11:44:51.970Z,28.50
2022-12-15T11:47:47.485Z,28.63
2022-12-15T11:50:41.334Z,29.07
2022-12-15T11:53:27.486Z,30.50
2022-12-15T11:56:24.435Z,28.63
2022-12-15T11:59:27.495Z,27.63
2022-12-15T12:02:27.363Z,24.10
2022-12-15T12:05:34.171Z,26.30
2022-12-15T12:08:19.029Z,25.47
2022-12-15T12:11:07.381Z,25.80
2022-12-15T12:13:58.578Z,25.43
2022-12-15T12:16:40.241Z,24.73
2022-12-15T12:19:18.136Z,25.93
2022-12-15T12:21:51.537Z,28.37
2022-12-15T12:24:33.114Z,27.37
2022-12-15T12:27:41.688Z,27.47
2022-12-15T12:30:20.087Z,26.07
2022-12-15T12:33:03.226Z,26.43
2022-12-15T12:35:42.557Z,26.47
2022-12-15T12:38:13.138Z,25.77
2022-12-15T12:41:20.563Z,26.80
2022-12-15T12:44:00.857Z,25.73
2022-12-15T12:46:37.393Z,26.60
2022-12-15T12:49:26.791Z,27.40
2022-12-15T12:51:58.822Z,26.87
2022-12-15T12:54:37.515Z,26.90
2022-12-15T12:57:13.429Z,27.80
2022-12-15T13:00:02.773Z,28.23
2022-12-15T13:02:35.298Z,28.43
2022-12-15T13:05:30.899Z,28.07
2022-12-15T13:08:07.003Z,25.20
2022-12-15T13:10:37.498Z,27.60
2022-12-15T13:13:42.114Z,28.33
2022-12-15T13:16:24.285Z,27.37
2022-12-15T13:19:02.152Z,28.37
2022-12-15T13:21:44.506Z,26.53
2022-12-15T13:24:29.975Z,27.93
2022-12-15T13:27:08.749Z,26.53
2022-12-15T13:30:14.181Z,25.73
2022-12-15T13:32:46.048Z,27.87
2022-12-15T13:35:14.454Z,27.20
2022-12-15T13:38:03.863Z,28.53
2022-12-15T13:40:36.907Z,27.60
2022-12-15T13:43:06.620Z,27.73
2022-12-15T13:45:35.889Z,31.27
2022-12-15T13:48:22.646Z,29.40
2022-12-15T13:51:18.486Z,31.93
2022-12-15T13:53:53.627Z,28.80
2022-12-15T13:56:45.313Z,29.83
2022-12-15T13:59:40.174Z,29.37
2022-12-15T14:02:28.007Z,25.43
2022-12-15T14:05:15.105Z,23.87
2022-12-15T14:07:54.996Z,23.90
2022-12-15T14:10:42.412Z,23.60
2022-12-15T14:13:29.751Z,22.13
2022-12-15T14:16:00.428Z,21.97
2022-12-15T14:18:33.421Z,23.93
2022-12-15T14:21:05.141Z,22.50
2022-12-15T14:24:11.465Z,21.37
2022-12-15T14:26:32.880Z,22.07
2022-12-15T14:29:06.183Z,20.67
2022-12-15T14:31:33.798Z,20.43
2022-12-15T14:34:12.070Z,22.40
2022-12-15T14:36:42.099Z,20.67
2022-12-15T14:39:30.719Z,20.63
2022-12-15T14:41:59.098Z,22.13
2022-12-15T14:44:48.117Z,20.80
2022-12-15T14:47:31.924Z,22.57
2022-12-15T14:50:02.228Z,20.17
2022-12-15T14:52:38.911Z,20.40
2022-12-15T14:55:36.952Z,19.27
2022-12-15T14:58:35.884Z,19.90
2022-12-15T15:01:06.961Z,20.40
2022-12-15T15:03:40.798Z,20.50
2022-12-15T15:06:18.833Z,20.13
2022-12-15T15:08:52.734Z,20.17
2022-12-15T15:11:36.244Z,21.73
2022-12-15T15:14:17.039Z,21.77
2022-12-15T15:16:44.516Z,20.93
2022-12-15T15:19:21.558Z,22.00
2022-12-15T15:21:48.912Z,24.33
2022-12-15T15:24:15.864Z,22.93
2022-12-15T15:26:45.973Z,26.60
2022-12-15T15:29:41.531Z,28.60
2022-12-15T15:32:19.230Z,29.20
2022-12-15T15:34:47.335Z,28.67
2022-12-15T15:37:32.571Z,26.50
2022-12-15T15:39:59.511Z,25.70
2022-12-15T15:42:32.459Z,26.67
2022-12-15T15:44:59.797Z,24.57
2022-12-15T15:47:27.134Z,24.10
2022-12-15T15:49:58.308Z,23.03
2022-12-15T15:52:25.813Z,23.17
2022-12-15T15:54:53.749Z,22.00
2022-12-15T15:57:20.694Z,21.73
2022-12-15T15:59:47.887Z,21.60
2022-12-15T16:02:15.610Z,20.07
2022-12-15T16:04:44.314Z,21.23
2022-12-15T16:07:25.522Z,22.13
2022-12-15T16:09:53.897Z,21.47
2022-12-15T16:12:40.430Z,22.23
2022-12-15T16:15:16.867Z,23.33
2022-12-15T16:17:44.165Z,22.77
2022-12-15T16:20:17.117Z,22.70
2022-12-15T16:22:48.869Z,23.67
2022-12-15T16:25:48.473Z,23.97
2022-12-15T16:28:25.105Z,24.40
2022-12-15T16:30:52.876Z,23.63
2022-12-15T16:33:20.470Z,21.33
2022-12-15T16:35:49.606Z,24.00
2022-12-15T16:38:26.861Z,22.97
2022-12-15T16:40:55.493Z,24.77
2022-12-15T16:43:27.901Z,24.73
2022-12-15T16:45:57.284Z,23.90
2022-12-15T16:48:24.448Z,22.87
2022-12-15T16:50:58.317Z,24.03
2022-12-15T16:53:33.311Z,23.13
2022-12-15T16:56:04.024Z,23.97
2022-12-15T16:58:32.358Z,22.33
2022-12-15T17:00:59.714Z,25.63
2022-12-15T17:03:27.202Z,25.77
2022-12-15T17:06:01.605Z,26.30
2022-12-15T17:08:42.316Z,24.03
2022-12-15T17:11:27.417Z,26.07
2022-12-15T17:13:57.450Z,24.60
2022-12-15T17:16:26.359Z,26.60
2022-12-15T17:18:53.554Z,28.40
2022-12-15T17:21:28.102Z,28.43
2022-12-15T17:24:00.775Z,29.20
2022-12-15T17:26:32.218Z,27.43
2022-12-15T17:29:13.464Z,26.57
2022-12-15T17:31:40.426Z,26.70
2022-12-15T17:34:27.934Z,27.47
2022-12-15T17:36:59.449Z,25.77
2022-12-15T17:39:27.349Z,24.27
2022-12-15T17:42:02.949Z,26.77
2022-12-15T17:44:37.765Z,26.30
2022-12-15T17:47:08.240Z,26.27
2022-12-15T17:49:38.639Z,26.37
2022-12-15T17:52:21.214Z,26.73
2022-12-15T17:54:48.309Z,25.40
2022-12-15T17:57:15.280Z,27.40
2022-12-15T17:59:42.350Z,25.47
2022-12-15T18:02:18.286Z,27.67
2022-12-15T18:04:45.404Z,26.63
2022-12-15T18:07:20.301Z,27.10
2022-12-15T18:09:47.953Z,25.60
2022-12-15T18:12:22.575Z,27.07
2022-12-15T18:14:50.234Z,26.17
2022-12-15T18:17:17.270Z,27.93
2022-12-15T18:19:45.010Z,27.40
2022-12-15T18:22:22.593Z,26.37
2022-12-15T18:24:53.082Z,28.80
2022-12-15T18:27:26.359Z,28.13
2022-12-15T18:29:54.038Z,29.10
2022-12-15T18:32:25.971Z,29.90
2022-12-15T18:34:53.974Z,32.30
2022-12-15T18:37:24.695Z,30.70
2022-12-15T18:39:52.078Z,35.47
2022-12-15T18:42:21.374Z,36.17
2022-12-15T18:44:51.807Z,33.90
2022-12-15T18:47:22.366Z,33.47
2022-12-15T18:49:49.658Z,33.30
2022-12-15T18:52:20.591Z,31.77
2022-12-15T18:54:49.647Z,31.70
2022-12-15T18:57:27.658Z,31.87
2022-12-15T19:00:10.036Z,29.63
2022-12-15T19:02:37.134Z,30.40
2022-12-15T19:05:04.618Z,30.27
2022-12-15T19:07:32.605Z,29.10
2022-12-15T19:10:01.048Z,29.60
2022-12-15T19:12:28.055Z,30.60
2022-12-15T19:14:55.200Z,28.93
2022-12-15T19:17:43.000Z,29.83
2022-12-15T19:20:39.139Z,29.33
2022-12-15T19:23:07.808Z,28.90
2022-12-15T19:25:35.573Z,28.00
2022-12-15T19:28:02.600Z,29.50
2022-12-15T19:30:37.024Z,27.93
2022-12-15T19:33:10.354Z,28.70
2022-12-15T19:35:40.256Z,29.53
2022-12-15T19:38:08.291Z,28.87
2022-12-15T19:40:37.602Z,32.10
2022-12-15T19:43:05.456Z,29.93
2022-12-15T19:45:33.766Z,27.43
2022-12-15T19:48:00.883Z,29.30
2022-12-15T19:50:36.668Z,30.00
2022-12-15T19:53:24.199Z,30.40
2022-12-15T19:55:54.405Z,28.13
2022-12-15T19:58:26.933Z,29.67
2022-12-15T20:00:58.023Z,29.10
2022-12-15T20:03:26.224Z,30.47
2022-12-15T20:05:56.427Z,30.97
2022-12-15T20:08:29.592Z,29.40
2022-12-15T20:10:56.991Z,30.20
2022-12-15T20:13:26.512Z,29.43
2022-12-15T20:15:54.851Z,29.77
2022-12-15T20:18:22.172Z,28.13
2022-12-15T20:20:50.948Z,28.33
2022-12-15T20:23:26.187Z,27.10
2022-12-15T20:25:54.669Z,27.33
2022-12-15T20:28:29.433Z,28.90
2022-12-15T20:30:58.231Z,28.57
2022-12-15T20:33:25.381Z,28.47
2022-12-15T20:35:52.877Z,27.10
2022-12-15T20:38:32.495Z,29.87
2022-12-15T20:41:01.557Z,28.47
2022-12-15T20:43:31.811Z,30.80
2022-12-15T20:46:22.906Z,27.90
2022-12-15T20:48:52.098Z,29.30
2022-12-15T20:51:26.054Z,28.73
2022-12-15T20:53:55.690Z,28.47
2022-12-15T20:56:23.852Z,27.30
2022-12-15T20:58:52.897Z,28.87
2022-12-15T21:01:33.048Z,26.90
2022-12-15T21:04:03.637Z,26.83
2022-12-15T21:06:30.984Z,28.47
2022-12-15T21:08:58.012Z,28.73
2022-12-15T21:11:28.373Z,28.47
2022-12-15T21:13:59.259Z,28.63
2022-12-15T21:16:29.089Z,28.43
2022-12-15T21:19:20.239Z,30.03
2022-12-15T21:21:47.846Z,28.60
2022-12-15T21:24:25.419Z,28.33
2022-12-15T21:26:52.998Z,28.33
2022-12-15T21:29:24.826Z,25.03
2022-12-15T21:31:51.928Z,26.60
2022-12-15T21:34:18.940Z,26.60
2022-12-15T21:36:51.835Z,26.87
2022-12-15T21:39:30.105Z,26.30
2022-12-15T21:42:13.229Z,26.00
2022-12-15T21:44:41.599Z,26.00
2022-12-15T21:47:52.030Z,26.03
2022-12-15T21:50:19.838Z,26.03
2022-12-15T21:52:47.823Z,26.23
2022-12-15T21:55:21.309Z,25.83
2022-12-15T21:57:48.706Z,26.43
2022-12-15T22:00:18.337Z,25.63
2022-12-15T22:02:47.288Z,28.10
2022-12-15T22:05:23.668Z,26.20
2022-12-15T22:07:51.228Z,24.93
2022-12-15T22:10:18.688Z,24.47
2022-12-15T22:12:59.031Z,24.37
2022-12-15T22:15:28.798Z,25.80
2022-12-15T22:17:56.158Z,24.40
2022-12-15T22:20:24.568Z,23.83
2022-12-15T22:22:51.813Z,26.77
2022-12-15T22:25:26.085Z,24.77
2022-12-15T22:27:54.746Z,23.30
2022-12-15T22:30:26.871Z,24.27
2022-12-15T22:32:54.305Z,24.03
2022-12-15T22:35:27.204Z,24.30
2022-12-15T22:37:54.190Z,24.80
2022-12-15T22:40:24.183Z,23.57
2022-12-15T22:42:57.652Z,22.67
2022-12-15T22:45:24.862Z,25.37
2022-12-15T22:47:53.505Z,24.33
2022-12-15T22:50:25.635Z,24.50
2022-12-15T22:52:52.946Z,26.37
2022-12-15T22:55:22.851Z,25.67
2022-12-15T22:58:01.222Z,24.73
2022-12-15T23:00:28.567Z,26.27
2022-12-15T23:05:29.387Z,26.70
2022-12-15T23:07:56.380Z,27.03
2022-12-15T23:10:42.011Z,28.63
2022-12-15T23:13:08.990Z,27.83
2022-12-15T23:15:54.867Z,26.97
2022-12-15T23:18:21.895Z,27.43
2022-12-15T23:20:48.890Z,27.63
2022-12-15T23:23:15.883Z,28.23
2022-12-15T23:25:43.787Z,25.97
2022-12-15T23:28:10.775Z,28.10
2022-12-15T23:30:37.871Z,28.97
2022-12-15T23:33:04.926Z,27.77
2022-12-15T23:35:31.948Z,29.83
2022-12-15T23:37:58.983Z,28.50
2022-12-15T23:40:26.098Z,30.40
2022-12-15T23:42:53.764Z,28.67
2022-12-15T23:45:21.106Z,28.87
2022-12-15T23:47:48.155Z,28.50
2022-12-15T23:50:15.169Z,25.87
2022-12-15T23:52:42.387Z,28.73
2022-12-15T23:55:10.206Z,27.40
2022-12-15T23:57:39.471Z,26.13
